sensor_id;sensor_type;location;lat;lon;timestamp;P1;durP1;ratioP1;P2;durP2;ratioP2
6679;SDS011;3376;42.664;23.346;2022-07-12T00:00:44;1.80;;;1.80;;
6679;SDS011;3376;42.664;23.346;2022-07-12T00:03:11;2.27;;;2.17;;
6679;SDS011;3376;42.664;23.346;2022-07-12T00:05:39;2.37;;;2.07;;
6679;SDS011;3376;42.664;23.346;2022-07-12T00:08:06;2.20;;;2.00;;
6679;SDS011;3376;42.664;23.346;2022-07-12T00:10:33;1.50;;;1.50;;
6679;SDS011;3376;42.664;23.346;2022-07-12T00:12:59;2.03;;;1.93;;
6679;SDS011;3376;42.664;23.346;2022-07-12T00:15:27;1.90;;;1.80;;
6679;SDS011;3376;42.664;23.346;2022-07-12T00:17:54;2.10;;;1.90;;
6679;SDS011;3376;42.664;23.346;2022-07-12T00:20:21;1.63;;;1.63;;
6679;SDS011;3376;42.664;23.346;2022-07-12T00:22:49;1.73;;;1.73;;
6679;SDS011;3376;42.664;23.346;2022-07-12T00:25:16;7.10;;;2.27;;
6679;SDS011;3376;42.664;23.346;2022-07-12T00:27:42;2.70;;;1.80;;
6679;SDS011;3376;42.664;23.346;2022-07-12T00:30:10;2.30;;;1.70;;
6679;SDS011;3376;42.664;23.346;2022-07-12T00:32:37;1.57;;;1.57;;
6679;SDS011;3376;42.664;23.346;2022-07-12T00:35:04;1.80;;;1.80;;
6679;SDS011;3376;42.664;23.346;2022-07-12T00:37:32;1.80;;;1.70;;
6679;SDS011;3376;42.664;23.346;2022-07-12T00:40:00;1.73;;;1.73;;
6679;SDS011;3376;42.664;23.346;2022-07-12T00:42:27;1.50;;;1.43;;
6679;SDS011;3376;42.664;23.346;2022-07-12T00:44:54;1.70;;;1.60;;
6679;SDS011;3376;42.664;23.346;2022-07-12T00:47:25;2.53;;;1.60;;
6679;SDS011;3376;42.664;23.346;2022-07-12T00:49:57;2.00;;;1.90;;
6679;SDS011;3376;42.664;23.346;2022-07-12T00:52:25;1.70;;;1.60;;
6679;SDS011;3376;42.664;23.346;2022-07-12T00:54:51;2.13;;;1.70;;
6679;SDS011;3376;42.664;23.346;2022-07-12T00:57:20;1.77;;;1.70;;
6679;SDS011;3376;42.664;23.346;2022-07-12T00:59:46;1.67;;;1.60;;
6679;SDS011;3376;42.664;23.346;2022-07-12T01:02:13;1.63;;;1.40;;
6679;SDS011;3376;42.664;23.346;2022-07-12T01:04:40;2.83;;;1.60;;
6679;SDS011;3376;42.664;23.346;2022-07-12T01:07:09;3.67;;;1.30;;
6679;SDS011;3376;42.664;23.346;2022-07-12T01:09:36;1.60;;;1.50;;
6679;SDS011;3376;42.664;23.346;2022-07-12T01:12:04;2.10;;;1.60;;
6679;SDS011;3376;42.664;23.346;2022-07-12T01:14:33;2.43;;;1.40;;
6679;SDS011;3376;42.664;23.346;2022-07-12T01:17:01;2.20;;;1.83;;
6679;SDS011;3376;42.664;23.346;2022-07-12T01:19:28;2.77;;;2.33;;
6679;SDS011;3376;42.664;23.346;2022-07-12T01:21:56;2.13;;;2.10;;
6679;SDS011;3376;42.664;23.346;2022-07-12T01:24:27;2.27;;;2.20;;
6679;SDS011;3376;42.664;23.346;2022-07-12T01:26:53;1.93;;;1.93;;
6679;SDS011;3376;42.664;23.346;2022-07-12T01:29:20;2.73;;;2.63;;
6679;SDS011;3376;42.664;23.346;2022-07-12T01:31:48;2.60;;;2.43;;
6679;SDS011;3376;42.664;23.346;2022-07-12T01:34:15;3.00;;;2.80;;
6679;SDS011;3376;42.664;23.346;2022-07-12T01:36:42;2.80;;;2.60;;
6679;SDS011;3376;42.664;23.346;2022-07-12T01:39:11;4.70;;;2.90;;
6679;SDS011;3376;42.664;23.346;2022-07-12T01:41:39;2.50;;;2.40;;
6679;SDS011;3376;42.664;23.346;2022-07-12T01:44:06;3.33;;;3.23;;
6679;SDS011;3376;42.664;23.346;2022-07-12T01:46:33;4.00;;;3.00;;
6679;SDS011;3376;42.664;23.346;2022-07-12T01:49:00;3.47;;;3.20;;
6679;SDS011;3376;42.664;23.346;2022-07-12T01:51:27;3.33;;;3.23;;
6679;SDS011;3376;42.664;23.346;2022-07-12T01:53:57;3.93;;;3.67;;
6679;SDS011;3376;42.664;23.346;2022-07-12T01:56:24;3.67;;;3.47;;
6679;SDS011;3376;42.664;23.346;2022-07-12T01:58:52;3.40;;;3.30;;
6679;SDS011;3376;42.664;23.346;2022-07-12T02:01:19;3.43;;;3.17;;
6679;SDS011;3376;42.664;23.346;2022-07-12T02:03:46;5.20;;;3.60;;
6679;SDS011;3376;42.664;23.346;2022-07-12T02:06:13;5.20;;;3.13;;
6679;SDS011;3376;42.664;23.346;2022-07-12T02:08:41;3.93;;;3.53;;
6679;SDS011;3376;42.664;23.346;2022-07-12T02:11:08;3.50;;;3.40;;
6679;SDS011;3376;42.664;23.346;2022-07-12T02:13:35;3.87;;;3.67;;
6679;SDS011;3376;42.664;23.346;2022-07-12T02:16:03;3.43;;;3.30;;
6679;SDS011;3376;42.664;23.346;2022-07-12T02:18:31;3.83;;;3.50;;
6679;SDS011;3376;42.664;23.346;2022-07-12T02:20:58;3.70;;;3.60;;
6679;SDS011;3376;42.664;23.346;2022-07-12T02:23:25;3.67;;;3.30;;
6679;SDS011;3376;42.664;23.346;2022-07-12T02:25:52;4.27;;;3.90;;
6679;SDS011;3376;42.664;23.346;2022-07-12T02:28:19;4.60;;;4.20;;
6679;SDS011;3376;42.664;23.346;2022-07-12T02:30:46;3.80;;;3.53;;
6679;SDS011;3376;42.664;23.346;2022-07-12T02:33:14;3.20;;;3.10;;
6679;SDS011;3376;42.664;23.346;2022-07-12T02:35:41;4.10;;;3.80;;
6679;SDS011;3376;42.664;23.346;2022-07-12T02:38:08;3.70;;;3.60;;
6679;SDS011;3376;42.664;23.346;2022-07-12T02:40:35;3.67;;;3.47;;
6679;SDS011;3376;42.664;23.346;2022-07-12T02:43:20;3.40;;;3.30;;
6679;SDS011;3376;42.664;23.346;2022-07-12T02:45:48;4.00;;;3.73;;
6679;SDS011;3376;42.664;23.346;2022-07-12T02:48:16;3.87;;;3.77;;
6679;SDS011;3376;42.664;23.346;2022-07-12T02:50:43;3.77;;;3.57;;
6679;SDS011;3376;42.664;23.346;2022-07-12T02:53:10;3.80;;;3.60;;
6679;SDS011;3376;42.664;23.346;2022-07-12T02:55:37;3.60;;;3.30;;
6679;SDS011;3376;42.664;23.346;2022-07-12T02:58:04;4.07;;;3.67;;
6679;SDS011;3376;42.664;23.346;2022-07-12T03:00:32;3.37;;;3.27;;
6679;SDS011;3376;42.664;23.346;2022-07-12T03:02:59;3.57;;;3.40;;
6679;SDS011;3376;42.664;23.346;2022-07-12T03:05:28;3.17;;;3.07;;
6679;SDS011;3376;42.664;23.346;2022-07-12T03:07:55;3.80;;;3.60;;
6679;SDS011;3376;42.664;23.346;2022-07-12T03:10:22;3.17;;;3.07;;
6679;SDS011;3376;42.664;23.346;2022-07-12T03:12:48;4.40;;;3.50;;
6679;SDS011;3376;42.664;23.346;2022-07-12T03:15:15;5.10;;;3.50;;
6679;SDS011;3376;42.664;23.346;2022-07-12T03:17:42;3.83;;;3.57;;
6679;SDS011;3376;42.664;23.346;2022-07-12T03:20:10;7.90;;;3.23;;
6679;SDS011;3376;42.664;23.346;2022-07-12T03:22:40;3.00;;;2.90;;
6679;SDS011;3376;42.664;23.346;2022-07-12T03:25:10;4.00;;;3.33;;
6679;SDS011;3376;42.664;23.346;2022-07-12T03:27:37;3.10;;;3.00;;
6679;SDS011;3376;42.664;23.346;2022-07-12T03:30:05;3.00;;;2.70;;
6679;SDS011;3376;42.664;23.346;2022-07-12T03:32:33;2.90;;;2.70;;
6679;SDS011;3376;42.664;23.346;2022-07-12T03:35:00;2.67;;;2.47;;
6679;SDS011;3376;42.664;23.346;2022-07-12T03:37:27;2.37;;;2.27;;
6679;SDS011;3376;42.664;23.346;2022-07-12T03:39:55;3.37;;;3.17;;
6679;SDS011;3376;42.664;23.346;2022-07-12T03:42:22;2.47;;;2.37;;
6679;SDS011;3376;42.664;23.346;2022-07-12T03:44:49;4.20;;;2.63;;
6679;SDS011;3376;42.664;23.346;2022-07-12T03:47:16;4.87;;;2.47;;
6679;SDS011;3376;42.664;23.346;2022-07-12T03:49:43;2.70;;;2.37;;
6679;SDS011;3376;42.664;23.346;2022-07-12T03:52:10;2.30;;;2.20;;
6679;SDS011;3376;42.664;23.346;2022-07-12T03:54:36;2.43;;;2.33;;
6679;SDS011;3376;42.664;23.346;2022-07-12T03:57:05;2.93;;;2.73;;
6679;SDS011;3376;42.664;23.346;2022-07-12T03:59:41;3.70;;;2.90;;
6679;SDS011;3376;42.664;23.346;2022-07-12T04:02:08;2.77;;;2.67;;
6679;SDS011;3376;42.664;23.346;2022-07-12T04:04:35;3.63;;;2.80;;
6679;SDS011;3376;42.664;23.346;2022-07-12T04:07:02;2.90;;;2.80;;
6679;SDS011;3376;42.664;23.346;2022-07-12T04:09:29;2.90;;;2.70;;
6679;SDS011;3376;42.664;23.346;2022-07-12T04:11:56;2.90;;;2.80;;
6679;SDS011;3376;42.664;23.346;2022-07-12T04:14:25;2.87;;;2.67;;
6679;SDS011;3376;42.664;23.346;2022-07-12T04:16:53;3.63;;;3.17;;
6679;SDS011;3376;42.664;23.346;2022-07-12T04:19:20;3.10;;;3.00;;
6679;SDS011;3376;42.664;23.346;2022-07-12T04:21:49;2.93;;;2.83;;
6679;SDS011;3376;42.664;23.346;2022-07-12T04:24:16;3.00;;;2.90;;
6679;SDS011;3376;42.664;23.346;2022-07-12T04:26:42;3.27;;;3.17;;
6679;SDS011;3376;42.664;23.346;2022-07-12T04:29:09;6.77;;;3.20;;
6679;SDS011;3376;42.664;23.346;2022-07-12T04:31:37;3.67;;;3.17;;
6679;SDS011;3376;42.664;23.346;2022-07-12T04:34:04;6.10;;;3.40;;
6679;SDS011;3376;42.664;23.346;2022-07-12T04:36:31;3.43;;;3.13;;
6679;SDS011;3376;42.664;23.346;2022-07-12T04:38:59;3.60;;;3.30;;
6679;SDS011;3376;42.664;23.346;2022-07-12T04:41:26;3.63;;;3.43;;
6679;SDS011;3376;42.664;23.346;2022-07-12T04:43:53;3.27;;;3.07;;
6679;SDS011;3376;42.664;23.346;2022-07-12T04:46:20;3.50;;;3.30;;
6679;SDS011;3376;42.664;23.346;2022-07-12T04:48:48;3.10;;;2.90;;
6679;SDS011;3376;42.664;23.346;2022-07-12T04:51:15;3.67;;;3.03;;
6679;SDS011;3376;42.664;23.346;2022-07-12T04:53:42;4.27;;;3.13;;
6679;SDS011;3376;42.664;23.346;2022-07-12T04:56:09;3.47;;;3.27;;
6679;SDS011;3376;42.664;23.346;2022-07-12T04:58:36;4.03;;;3.00;;
6679;SDS011;3376;42.664;23.346;2022-07-12T05:01:03;3.67;;;3.47;;
6679;SDS011;3376;42.664;23.346;2022-07-12T05:03:30;3.20;;;3.00;;
6679;SDS011;3376;42.664;23.346;2022-07-12T05:05:58;3.90;;;3.57;;
6679;SDS011;3376;42.664;23.346;2022-07-12T05:08:25;4.13;;;3.43;;
6679;SDS011;3376;42.664;23.346;2022-07-12T05:10:52;3.97;;;3.70;;
6679;SDS011;3376;42.664;23.346;2022-07-12T05:13:19;3.70;;;3.50;;
6679;SDS011;3376;42.664;23.346;2022-07-12T05:15:45;3.70;;;3.30;;
6679;SDS011;3376;42.664;23.346;2022-07-12T05:18:12;5.90;;;3.83;;
6679;SDS011;3376;42.664;23.346;2022-07-12T05:20:39;4.50;;;4.10;;
6679;SDS011;3376;42.664;23.346;2022-07-12T05:23:08;4.43;;;4.03;;
6679;SDS011;3376;42.664;23.346;2022-07-12T05:25:34;5.97;;;3.77;;
6679;SDS011;3376;42.664;23.346;2022-07-12T05:28:01;4.43;;;4.10;;
6679;SDS011;3376;42.664;23.346;2022-07-12T05:30:28;4.43;;;4.13;;
6679;SDS011;3376;42.664;23.346;2022-07-12T05:32:55;4.20;;;4.00;;
6679;SDS011;3376;42.664;23.346;2022-07-12T05:35:22;4.07;;;3.87;;
6679;SDS011;3376;42.664;23.346;2022-07-12T05:37:49;9.30;;;4.63;;
6679;SDS011;3376;42.664;23.346;2022-07-12T05:40:18;4.07;;;3.87;;
6679;SDS011;3376;42.664;23.346;2022-07-12T05:42:45;6.50;;;6.20;;
6679;SDS011;3376;42.664;23.346;2022-07-12T05:45:12;7.83;;;5.10;;
6679;SDS011;3376;42.664;23.346;2022-07-12T05:47:39;5.03;;;4.70;;
6679;SDS011;3376;42.664;23.346;2022-07-12T05:50:06;4.97;;;4.67;;
6679;SDS011;3376;42.664;23.346;2022-07-12T05:52:33;4.63;;;4.43;;
6679;SDS011;3376;42.664;23.346;2022-07-12T05:55:19;6.23;;;4.60;;
6679;SDS011;3376;42.664;23.346;2022-07-12T05:57:46;5.77;;;3.97;;
6679;SDS011;3376;42.664;23.346;2022-07-12T06:00:13;4.03;;;3.73;;
6679;SDS011;3376;42.664;23.346;2022-07-12T06:02:40;5.27;;;3.73;;
6679;SDS011;3376;42.664;23.346;2022-07-12T06:05:07;3.87;;;3.67;;
6679;SDS011;3376;42.664;23.346;2022-07-12T06:07:34;6.03;;;3.60;;
6679;SDS011;3376;42.664;23.346;2022-07-12T06:10:01;3.13;;;2.87;;
6679;SDS011;3376;42.664;23.346;2022-07-12T06:12:30;3.73;;;2.87;;
6679;SDS011;3376;42.664;23.346;2022-07-12T06:14:57;4.73;;;3.03;;
6679;SDS011;3376;42.664;23.346;2022-07-12T06:17:24;3.83;;;3.53;;
6679;SDS011;3376;42.664;23.346;2022-07-12T06:19:51;3.20;;;3.10;;
6679;SDS011;3376;42.664;23.346;2022-07-12T06:22:18;3.37;;;2.83;;
6679;SDS011;3376;42.664;23.346;2022-07-12T06:24:46;6.63;;;2.90;;
6679;SDS011;3376;42.664;23.346;2022-07-12T06:27:13;4.50;;;3.10;;
6679;SDS011;3376;42.664;23.346;2022-07-12T06:29:41;5.37;;;2.60;;
6679;SDS011;3376;42.664;23.346;2022-07-12T06:32:12;3.50;;;2.80;;
6679;SDS011;3376;42.664;23.346;2022-07-12T06:34:39;3.30;;;2.77;;
6679;SDS011;3376;42.664;23.346;2022-07-12T06:37:06;1.67;;;1.30;;
6679;SDS011;3376;42.664;23.346;2022-07-12T06:39:34;2.83;;;2.23;;
6679;SDS011;3376;42.664;23.346;2022-07-12T06:42:01;2.90;;;1.80;;
6679;SDS011;3376;42.664;23.346;2022-07-12T06:44:29;3.07;;;1.53;;
6679;SDS011;3376;42.664;23.346;2022-07-12T06:46:58;1.30;;;1.20;;
6679;SDS011;3376;42.664;23.346;2022-07-12T06:49:25;2.73;;;1.70;;
6679;SDS011;3376;42.664;23.346;2022-07-12T06:51:52;2.00;;;1.50;;
6679;SDS011;3376;42.664;23.346;2022-07-12T06:54:19;2.73;;;1.70;;
6679;SDS011;3376;42.664;23.346;2022-07-12T06:56:46;2.80;;;1.83;;
6679;SDS011;3376;42.664;23.346;2022-07-12T06:59:13;2.20;;;1.90;;
6679;SDS011;3376;42.664;23.346;2022-07-12T07:01:40;2.13;;;1.93;;
6679;SDS011;3376;42.664;23.346;2022-07-12T07:04:08;2.87;;;1.63;;
6679;SDS011;3376;42.664;23.346;2022-07-12T07:06:35;4.00;;;2.07;;
6679;SDS011;3376;42.664;23.346;2022-07-12T07:09:02;2.50;;;2.30;;
6679;SDS011;3376;42.664;23.346;2022-07-12T07:11:32;2.80;;;2.00;;
6679;SDS011;3376;42.664;23.346;2022-07-12T07:14:00;2.30;;;1.97;;
6679;SDS011;3376;42.664;23.346;2022-07-12T07:16:27;1.70;;;1.53;;
6679;SDS011;3376;42.664;23.346;2022-07-12T07:18:53;3.77;;;1.63;;
6679;SDS011;3376;42.664;23.346;2022-07-12T07:21:22;2.53;;;2.00;;
6679;SDS011;3376;42.664;23.346;2022-07-12T07:23:49;1.60;;;1.50;;
6679;SDS011;3376;42.664;23.346;2022-07-12T07:26:16;1.53;;;1.33;;
6679;SDS011;3376;42.664;23.346;2022-07-12T07:28:43;4.90;;;1.33;;
6679;SDS011;3376;42.664;23.346;2022-07-12T07:31:27;1.97;;;1.53;;
6679;SDS011;3376;42.664;23.346;2022-07-12T07:33:54;4.40;;;1.93;;
6679;SDS011;3376;42.664;23.346;2022-07-12T07:36:22;3.30;;;1.60;;
6679;SDS011;3376;42.664;23.346;2022-07-12T07:38:49;2.70;;;1.10;;
6679;SDS011;3376;42.664;23.346;2022-07-12T07:41:16;2.53;;;1.00;;
6679;SDS011;3376;42.664;23.346;2022-07-12T07:43:42;1.03;;;1.03;;
6679;SDS011;3376;42.664;23.346;2022-07-12T07:46:09;1.03;;;0.93;;
6679;SDS011;3376;42.664;23.346;2022-07-12T07:48:36;1.93;;;1.70;;
6679;SDS011;3376;42.664;23.346;2022-07-12T07:51:05;1.50;;;1.40;;
6679;SDS011;3376;42.664;23.346;2022-07-12T07:53:33;1.20;;;1.00;;
6679;SDS011;3376;42.664;23.346;2022-07-12T07:56:00;1.20;;;1.10;;
6679;SDS011;3376;42.664;23.346;2022-07-12T07:58:27;1.60;;;1.50;;
6679;SDS011;3376;42.664;23.346;2022-07-12T08:00:54;1.93;;;1.23;;
6679;SDS011;3376;42.664;23.346;2022-07-12T08:03:21;3.57;;;1.13;;
6679;SDS011;3376;42.664;23.346;2022-07-12T08:05:49;1.90;;;1.03;;
6679;SDS011;3376;42.664;23.346;2022-07-12T08:08:16;1.40;;;1.23;;
6679;SDS011;3376;42.664;23.346;2022-07-12T08:10:45;1.03;;;0.93;;
6679;SDS011;3376;42.664;23.346;2022-07-12T08:13:12;1.67;;;1.30;;
6679;SDS011;3376;42.664;23.346;2022-07-12T08:15:39;3.03;;;1.00;;
6679;SDS011;3376;42.664;23.346;2022-07-12T08:18:05;5.87;;;1.03;;
6679;SDS011;3376;42.664;23.346;2022-07-12T08:20:32;1.53;;;0.80;;
6679;SDS011;3376;42.664;23.346;2022-07-12T08:22:59;1.40;;;1.30;;
6679;SDS011;3376;42.664;23.346;2022-07-12T08:25:26;1.60;;;1.23;;
6679;SDS011;3376;42.664;23.346;2022-07-12T08:27:55;2.67;;;1.00;;
6679;SDS011;3376;42.664;23.346;2022-07-12T08:30:23;17.83;;;3.03;;
6679;SDS011;3376;42.664;23.346;2022-07-12T08:32:50;0.90;;;0.90;;
6679;SDS011;3376;42.664;23.346;2022-07-12T08:35:17;1.53;;;0.70;;
6679;SDS011;3376;42.664;23.346;2022-07-12T08:37:44;3.70;;;0.80;;
6679;SDS011;3376;42.664;23.346;2022-07-12T08:40:11;5.57;;;1.23;;
6679;SDS011;3376;42.664;23.346;2022-07-12T08:42:40;1.53;;;0.80;;
6679;SDS011;3376;42.664;23.346;2022-07-12T08:45:09;2.90;;;1.60;;
6679;SDS011;3376;42.664;23.346;2022-07-12T08:47:36;4.47;;;1.70;;
6679;SDS011;3376;42.664;23.346;2022-07-12T08:50:13;3.10;;;1.60;;
6679;SDS011;3376;42.664;23.346;2022-07-12T08:52:43;2.13;;;1.63;;
6679;SDS011;3376;42.664;23.346;2022-07-12T08:57:56;1.37;;;0.80;;
6679;SDS011;3376;42.664;23.346;2022-07-12T09:00:26;2.23;;;1.00;;
6679;SDS011;3376;42.664;23.346;2022-07-12T09:02:54;2.03;;;1.00;;
6679;SDS011;3376;42.664;23.346;2022-07-12T09:05:22;1.77;;;1.27;;
6679;SDS011;3376;42.664;23.346;2022-07-12T09:07:50;1.03;;;0.80;;
6679;SDS011;3376;42.664;23.346;2022-07-12T09:10:17;1.40;;;1.07;;
6679;SDS011;3376;42.664;23.346;2022-07-12T09:12:44;1.20;;;1.13;;
6679;SDS011;3376;42.664;23.346;2022-07-12T09:15:15;5.30;;;5.00;;
6679;SDS011;3376;42.664;23.346;2022-07-12T09:20:29;1.17;;;1.00;;
6679;SDS011;3376;42.664;23.346;2022-07-12T09:22:59;0.67;;;0.60;;
6679;SDS011;3376;42.664;23.346;2022-07-12T09:25:27;10.60;;;1.03;;
6679;SDS011;3376;42.664;23.346;2022-07-12T09:27:55;0.80;;;0.80;;
6679;SDS011;3376;42.664;23.346;2022-07-12T09:30:24;3.63;;;3.43;;
6679;SDS011;3376;42.664;23.346;2022-07-12T09:32:53;1.93;;;0.80;;
6679;SDS011;3376;42.664;23.346;2022-07-12T09:35:41;7.00;;;2.37;;
6679;SDS011;3376;42.664;23.346;2022-07-12T09:38:26;5.00;;;4.70;;
6679;SDS011;3376;42.664;23.346;2022-07-12T09:40:54;2.60;;;1.17;;
6679;SDS011;3376;42.664;23.346;2022-07-12T09:43:22;3.50;;;1.37;;
6679;SDS011;3376;42.664;23.346;2022-07-12T09:45:50;2.30;;;2.17;;
6679;SDS011;3376;42.664;23.346;2022-07-12T09:48:17;3.53;;;1.37;;
6679;SDS011;3376;42.664;23.346;2022-07-12T09:50:47;1.00;;;0.53;;
6679;SDS011;3376;42.664;23.346;2022-07-12T09:53:18;1.83;;;1.00;;
6679;SDS011;3376;42.664;23.346;2022-07-12T09:55:48;2.50;;;0.70;;
6679;SDS011;3376;42.664;23.346;2022-07-12T09:58:19;0.60;;;0.57;;
6679;SDS011;3376;42.664;23.346;2022-07-12T10:00:50;4.87;;;0.87;;
6679;SDS011;3376;42.664;23.346;2022-07-12T10:03:20;1.63;;;0.70;;
6679;SDS011;3376;42.664;23.346;2022-07-12T10:05:50;2.20;;;1.10;;
6679;SDS011;3376;42.664;23.346;2022-07-12T10:08:19;1.67;;;1.13;;
6679;SDS011;3376;42.664;23.346;2022-07-12T10:10:47;2.70;;;0.80;;
6679;SDS011;3376;42.664;23.346;2022-07-12T10:13:16;4.03;;;0.90;;
6679;SDS011;3376;42.664;23.346;2022-07-12T10:15:44;3.87;;;0.83;;
6679;SDS011;3376;42.664;23.346;2022-07-12T10:18:16;1.53;;;0.50;;
6679;SDS011;3376;42.664;23.346;2022-07-12T10:20:45;2.40;;;1.20;;
6679;SDS011;3376;42.664;23.346;2022-07-12T10:29:06;3.00;;;1.10;;
6679;SDS011;3376;42.664;23.346;2022-07-12T10:31:34;1.17;;;0.60;;
6679;SDS011;3376;42.664;23.346;2022-07-12T10:34:09;1.17;;;0.97;;
6679;SDS011;3376;42.664;23.346;2022-07-12T10:45:39;1.37;;;1.23;;
6679;SDS011;3376;42.664;23.346;2022-07-12T10:48:07;3.70;;;0.80;;
6679;SDS011;3376;42.664;23.346;2022-07-12T10:50:51;0.80;;;0.80;;
6679;SDS011;3376;42.664;23.346;2022-07-12T10:53:24;0.90;;;0.80;;
6679;SDS011;3376;42.664;23.346;2022-07-12T10:58:51;1.50;;;1.40;;
6679;SDS011;3376;42.664;23.346;2022-07-12T11:01:19;1.37;;;0.70;;
6679;SDS011;3376;42.664;23.346;2022-07-12T11:03:47;1.33;;;0.77;;
6679;SDS011;3376;42.664;23.346;2022-07-12T11:06:17;0.67;;;0.67;;
6679;SDS011;3376;42.664;23.346;2022-07-12T11:08:55;0.80;;;0.80;;
6679;SDS011;3376;42.664;23.346;2022-07-12T11:11:24;2.37;;;0.80;;
6679;SDS011;3376;42.664;23.346;2022-07-12T11:13:52;0.60;;;0.53;;
6679;SDS011;3376;42.664;23.346;2022-07-12T11:16:20;0.50;;;0.50;;
6679;SDS011;3376;42.664;23.346;2022-07-12T11:18:48;0.87;;;0.63;;
6679;SDS011;3376;42.664;23.346;2022-07-12T11:21:15;2.10;;;1.00;;
6679;SDS011;3376;42.664;23.346;2022-07-12T11:23:42;0.77;;;0.70;;
6679;SDS011;3376;42.664;23.346;2022-07-12T11:26:10;0.60;;;0.60;;
6679;SDS011;3376;42.664;23.346;2022-07-12T11:28:40;1.83;;;0.90;;
6679;SDS011;3376;42.664;23.346;2022-07-12T11:31:08;1.03;;;0.87;;
6679;SDS011;3376;42.664;23.346;2022-07-12T11:33:38;1.27;;;0.70;;
6679;SDS011;3376;42.664;23.346;2022-07-12T11:36:06;1.40;;;0.70;;
6679;SDS011;3376;42.664;23.346;2022-07-12T11:38:34;1.00;;;0.90;;
6679;SDS011;3376;42.664;23.346;2022-07-12T11:41:02;1.33;;;0.97;;
6679;SDS011;3376;42.664;23.346;2022-07-12T11:43:31;1.07;;;0.70;;
6679;SDS011;3376;42.664;23.346;2022-07-12T11:46:01;1.27;;;0.70;;
6679;SDS011;3376;42.664;23.346;2022-07-12T11:48:29;0.73;;;0.70;;
6679;SDS011;3376;42.664;23.346;2022-07-12T11:51:00;1.73;;;0.90;;
6679;SDS011;3376;42.664;23.346;2022-07-12T11:53:29;0.80;;;0.80;;
6679;SDS011;3376;42.664;23.346;2022-07-12T11:55:58;0.90;;;0.67;;
6679;SDS011;3376;42.664;23.346;2022-07-12T11:58:26;1.53;;;0.80;;
6679;SDS011;3376;42.664;23.346;2022-07-12T12:00:54;2.10;;;0.70;;
6679;SDS011;3376;42.664;23.346;2022-07-12T12:03:24;0.70;;;0.70;;
6679;SDS011;3376;42.664;23.346;2022-07-12T12:05:52;0.93;;;0.93;;
6679;SDS011;3376;42.664;23.346;2022-07-12T12:08:19;1.17;;;1.00;;
6679;SDS011;3376;42.664;23.346;2022-07-12T12:10:54;0.93;;;0.93;;
6679;SDS011;3376;42.664;23.346;2022-07-12T12:13:22;1.37;;;0.70;;
6679;SDS011;3376;42.664;23.346;2022-07-12T12:15:50;1.23;;;0.87;;
6679;SDS011;3376;42.664;23.346;2022-07-12T12:18:30;1.67;;;0.60;;
6679;SDS011;3376;42.664;23.346;2022-07-12T12:20:59;0.60;;;0.60;;
6679;SDS011;3376;42.664;23.346;2022-07-12T12:23:27;1.60;;;0.60;;
6679;SDS011;3376;42.664;23.346;2022-07-12T12:26:08;1.93;;;0.70;;
6679;SDS011;3376;42.664;23.346;2022-07-12T12:28:41;1.80;;;0.80;;
6679;SDS011;3376;42.664;23.346;2022-07-12T12:31:10;1.67;;;0.70;;
6679;SDS011;3376;42.664;23.346;2022-07-12T12:33:39;1.40;;;0.60;;
6679;SDS011;3376;42.664;23.346;2022-07-12T12:36:11;1.53;;;0.90;;
6679;SDS011;3376;42.664;23.346;2022-07-12T12:38:46;1.90;;;0.80;;
6679;SDS011;3376;42.664;23.346;2022-07-12T12:41:14;1.70;;;0.83;;
6679;SDS011;3376;42.664;23.346;2022-07-12T12:43:41;0.60;;;0.60;;
6679;SDS011;3376;42.664;23.346;2022-07-12T12:46:08;0.97;;;0.80;;
6679;SDS011;3376;42.664;23.346;2022-07-12T12:48:36;0.73;;;0.73;;
6679;SDS011;3376;42.664;23.346;2022-07-12T12:51:05;1.03;;;1.00;;
6679;SDS011;3376;42.664;23.346;2022-07-12T12:53:33;1.87;;;0.70;;
6679;SDS011;3376;42.664;23.346;2022-07-12T12:56:04;0.60;;;0.60;;
6679;SDS011;3376;42.664;23.346;2022-07-12T12:58:32;2.60;;;0.60;;
6679;SDS011;3376;42.664;23.346;2022-07-12T13:00:58;0.80;;;0.80;;
6679;SDS011;3376;42.664;23.346;2022-07-12T13:03:25;2.10;;;0.80;;
6679;SDS011;3376;42.664;23.346;2022-07-12T13:05:52;1.53;;;0.50;;
6679;SDS011;3376;42.664;23.346;2022-07-12T13:08:20;3.47;;;1.10;;
6679;SDS011;3376;42.664;23.346;2022-07-12T13:10:48;3.10;;;1.00;;
6679;SDS011;3376;42.664;23.346;2022-07-12T13:13:36;0.60;;;0.60;;
6679;SDS011;3376;42.664;23.346;2022-07-12T13:16:03;1.77;;;0.60;;
6679;SDS011;3376;42.664;23.346;2022-07-12T13:18:31;1.83;;;0.87;;
6679;SDS011;3376;42.664;23.346;2022-07-12T13:20:58;1.43;;;0.70;;
6679;SDS011;3376;42.664;23.346;2022-07-12T13:23:26;0.60;;;0.60;;
6679;SDS011;3376;42.664;23.346;2022-07-12T13:25:53;2.80;;;1.17;;
6679;SDS011;3376;42.664;23.346;2022-07-12T13:28:20;0.83;;;0.70;;
6679;SDS011;3376;42.664;23.346;2022-07-12T13:30:47;1.67;;;0.60;;
6679;SDS011;3376;42.664;23.346;2022-07-12T13:33:14;1.27;;;0.60;;
6679;SDS011;3376;42.664;23.346;2022-07-12T13:35:41;2.43;;;0.60;;
6679;SDS011;3376;42.664;23.346;2022-07-12T13:38:08;0.70;;;0.70;;
6679;SDS011;3376;42.664;23.346;2022-07-12T13:40:36;0.70;;;0.70;;
6679;SDS011;3376;42.664;23.346;2022-07-12T13:43:03;0.67;;;0.67;;
6679;SDS011;3376;42.664;23.346;2022-07-12T13:45:31;1.10;;;1.00;;
6679;SDS011;3376;42.664;23.346;2022-07-12T13:48:00;1.17;;;0.90;;
6679;SDS011;3376;42.664;23.346;2022-07-12T13:50:27;1.27;;;1.00;;
6679;SDS011;3376;42.664;23.346;2022-07-12T13:52:54;0.87;;;0.70;;
6679;SDS011;3376;42.664;23.346;2022-07-12T13:55:21;2.43;;;1.10;;
6679;SDS011;3376;42.664;23.346;2022-07-12T13:57:50;0.80;;;0.80;;
6679;SDS011;3376;42.664;23.346;2022-07-12T14:00:17;0.70;;;0.70;;
6679;SDS011;3376;42.664;23.346;2022-07-12T14:02:44;1.00;;;0.97;;
6679;SDS011;3376;42.664;23.346;2022-07-12T14:05:13;0.70;;;0.70;;
6679;SDS011;3376;42.664;23.346;2022-07-12T14:07:42;1.43;;;0.70;;
6679;SDS011;3376;42.664;23.346;2022-07-12T14:10:10;0.70;;;0.60;;
6679;SDS011;3376;42.664;23.346;2022-07-12T14:12:38;1.20;;;1.07;;
6679;SDS011;3376;42.664;23.346;2022-07-12T14:15:07;9.77;;;1.17;;
6679;SDS011;3376;42.664;23.346;2022-07-12T14:17:40;1.90;;;0.80;;
6679;SDS011;3376;42.664;23.346;2022-07-12T14:20:09;0.70;;;0.70;;
6679;SDS011;3376;42.664;23.346;2022-07-12T14:22:37;1.43;;;0.80;;
6679;SDS011;3376;42.664;23.346;2022-07-12T14:25:05;0.70;;;0.70;;
6679;SDS011;3376;42.664;23.346;2022-07-12T14:27:33;2.37;;;1.23;;
6679;SDS011;3376;42.664;23.346;2022-07-12T14:30:02;3.30;;;0.90;;
6679;SDS011;3376;42.664;23.346;2022-07-12T14:32:32;0.70;;;0.70;;
6679;SDS011;3376;42.664;23.346;2022-07-12T14:34:59;1.90;;;0.87;;
6679;SDS011;3376;42.664;23.346;2022-07-12T14:37:26;1.37;;;0.83;;
6679;SDS011;3376;42.664;23.346;2022-07-12T14:39:53;2.27;;;1.00;;
6679;SDS011;3376;42.664;23.346;2022-07-12T14:42:20;0.80;;;0.73;;
6679;SDS011;3376;42.664;23.346;2022-07-12T14:44:47;0.77;;;0.70;;
6679;SDS011;3376;42.664;23.346;2022-07-12T14:47:14;1.00;;;0.90;;
6679;SDS011;3376;42.664;23.346;2022-07-12T14:49:42;2.33;;;0.77;;
6679;SDS011;3376;42.664;23.346;2022-07-12T14:52:09;0.80;;;0.80;;
6679;SDS011;3376;42.664;23.346;2022-07-12T14:54:36;0.80;;;0.80;;
6679;SDS011;3376;42.664;23.346;2022-07-12T14:57:03;1.30;;;0.80;;
6679;SDS011;3376;42.664;23.346;2022-07-12T14:59:30;0.83;;;0.83;;
6679;SDS011;3376;42.664;23.346;2022-07-12T15:01:56;2.03;;;0.70;;
6679;SDS011;3376;42.664;23.346;2022-07-12T15:04:25;2.40;;;0.87;;
6679;SDS011;3376;42.664;23.346;2022-07-12T15:06:53;0.80;;;0.80;;
6679;SDS011;3376;42.664;23.346;2022-07-12T15:09:20;1.17;;;0.90;;
6679;SDS011;3376;42.664;23.346;2022-07-12T15:11:46;0.90;;;0.90;;
6679;SDS011;3376;42.664;23.346;2022-07-12T15:14:13;2.73;;;0.67;;
6679;SDS011;3376;42.664;23.346;2022-07-12T15:16:40;1.10;;;0.80;;
6679;SDS011;3376;42.664;23.346;2022-07-12T15:19:07;0.80;;;0.80;;
6679;SDS011;3376;42.664;23.346;2022-07-12T15:21:34;2.67;;;0.87;;
6679;SDS011;3376;42.664;23.346;2022-07-12T15:24:03;1.37;;;0.90;;
6679;SDS011;3376;42.664;23.346;2022-07-12T15:26:30;0.83;;;0.83;;
6679;SDS011;3376;42.664;23.346;2022-07-12T15:28:58;2.67;;;1.10;;